createdAt,value
2018-08-13T00:00:32.138Z,18.10
2018-08-13T00:02:59.482Z,18.20
2018-08-13T00:05:26.884Z,18.30
2018-08-13T00:07:54.401Z,18.20
2018-08-13T00:10:21.782Z,18.30
2018-08-13T00:12:49.138Z,18.20
2018-08-13T00:15:16.554Z,18.20
2018-08-13T00:17:43.926Z,18.10
2018-08-13T00:20:11.234Z,18.10
2018-08-13T00:22:38.632Z,18.10
2018-08-13T00:25:06.117Z,18.10
2018-08-13T00:27:33.471Z,18.00
2018-08-13T00:30:00.877Z,18.00
2018-08-13T00:32:28.244Z,17.90
2018-08-13T00:34:55.737Z,17.80
2018-08-13T00:37:23.245Z,17.70
2018-08-13T00:39:50.636Z,17.80
2018-08-13T00:42:18.119Z,17.80
2018-08-13T00:44:45.511Z,17.90
2018-08-13T00:47:12.988Z,17.90
2018-08-13T00:49:40.421Z,18.00
2018-08-13T00:52:07.835Z,17.90
2018-08-13T00:54:35.262Z,17.90
2018-08-13T00:57:02.738Z,18.00
2018-08-13T00:59:30.080Z,18.00
2018-08-13T01:01:57.474Z,18.00
2018-08-13T01:04:24.942Z,18.10
2018-08-13T01:06:52.387Z,18.10
2018-08-13T01:09:19.886Z,18.10
2018-08-13T01:11:47.398Z,18.00
2018-08-13T01:14:14.783Z,18.00
2018-08-13T01:16:42.192Z,18.10
2018-08-13T01:19:09.659Z,18.00
2018-08-13T01:21:37.145Z,18.00
2018-08-13T01:24:04.572Z,17.90
2018-08-13T01:26:31.948Z,17.90
2018-08-13T01:28:59.425Z,18.00
2018-08-13T01:31:26.793Z,17.80
2018-08-13T01:33:54.193Z,18.00
2018-08-13T01:36:21.625Z,17.90
2018-08-13T01:38:48.983Z,17.90
2018-08-13T01:41:16.331Z,17.80
2018-08-13T01:43:43.785Z,17.80
2018-08-13T01:46:11.204Z,17.80
2018-08-13T01:48:38.709Z,17.80
2018-08-13T01:51:06.103Z,17.80
2018-08-13T01:53:33.432Z,17.80
2018-08-13T01:56:00.799Z,17.70
2018-08-13T01:58:28.235Z,17.80
2018-08-13T02:00:55.698Z,17.70
2018-08-13T02:03:23.162Z,17.70
2018-08-13T02:05:50.654Z,17.70
2018-08-13T02:08:18.078Z,17.60
2018-08-13T02:10:45.486Z,17.60
2018-08-13T02:13:12.880Z,17.60
2018-08-13T02:15:40.298Z,17.60
2018-08-13T02:18:07.957Z,17.60
2018-08-13T02:20:35.420Z,17.50
2018-08-13T02:23:02.844Z,17.40
2018-08-13T02:25:30.205Z,17.40
2018-08-13T02:27:57.553Z,17.50
2018-08-13T02:30:25.048Z,17.50
2018-08-13T02:32:52.478Z,17.40
2018-08-13T02:35:19.952Z,17.40
2018-08-13T02:37:47.298Z,17.40
2018-08-13T02:40:14.762Z,17.40
2018-08-13T02:42:42.174Z,17.40
2018-08-13T02:45:10.508Z,17.40
2018-08-13T02:47:37.946Z,17.50
2018-08-13T02:50:06.481Z,17.60
2018-08-13T02:52:33.944Z,17.60
2018-08-13T02:55:01.447Z,17.60
2018-08-13T02:57:28.901Z,17.50
2018-08-13T02:59:56.265Z,17.50
2018-08-13T03:02:23.742Z,17.40
2018-08-13T03:04:51.147Z,17.40
2018-08-13T03:07:18.559Z,17.40
2018-08-13T03:09:46.034Z,17.30
2018-08-13T03:12:13.571Z,17.30
2018-08-13T03:14:40.966Z,17.20
2018-08-13T03:17:08.458Z,17.30
2018-08-13T03:19:35.872Z,17.40
2018-08-13T03:22:03.398Z,17.30
2018-08-13T03:24:30.875Z,17.30
2018-08-13T03:26:58.343Z,17.30
2018-08-13T03:29:25.927Z,17.30
2018-08-13T03:31:53.477Z,17.20
2018-08-13T03:34:20.901Z,17.30
2018-08-13T03:36:48.415Z,17.30
2018-08-13T03:39:15.799Z,17.20
2018-08-13T03:41:43.328Z,17.20
2018-08-13T03:44:11.430Z,17.20
2018-08-13T03:46:39.078Z,17.10
2018-08-13T03:49:06.848Z,16.90
2018-08-13T03:51:34.272Z,16.90
2018-08-13T03:54:02.885Z,16.80
2018-08-13T03:56:30.748Z,16.80
2018-08-13T03:58:58.610Z,16.80
2018-08-13T04:01:26.549Z,16.80
2018-08-13T04:03:54.352Z,16.80
2018-08-13T04:06:22.080Z,16.70
2018-08-13T04:08:49.867Z,16.60
2018-08-13T04:11:17.269Z,16.80
2018-08-13T04:13:44.804Z,16.80
2018-08-13T04:16:12.393Z,16.70
2018-08-13T04:18:39.714Z,16.80
2018-08-13T04:21:07.123Z,16.80
2018-08-13T04:23:34.528Z,16.80
2018-08-13T04:26:01.908Z,16.70
2018-08-13T04:28:29.626Z,16.80
2018-08-13T04:30:57.571Z,16.70
2018-08-13T04:33:26.994Z,16.70
2018-08-13T04:38:47.714Z,16.80
2018-08-13T04:41:15.546Z,16.80
2018-08-13T04:43:43.661Z,16.90
2018-08-13T04:46:11.386Z,16.90
2018-08-13T04:48:38.795Z,17.00
2018-08-13T04:51:06.607Z,17.00
2018-08-13T04:53:39.123Z,17.00
2018-08-13T04:56:08.069Z,17.00
2018-08-13T04:58:36.007Z,17.10
2018-08-13T05:01:04.590Z,17.10
2018-08-13T05:03:42.770Z,17.00
2018-08-13T05:06:10.506Z,17.10
2018-08-13T05:08:38.112Z,17.20
2018-08-13T05:11:05.850Z,17.30
2018-08-13T05:13:33.654Z,17.40
2018-08-13T05:16:06.649Z,17.40
2018-08-13T05:18:34.093Z,17.50
2018-08-13T05:21:02.728Z,17.60
2018-08-13T05:23:30.591Z,17.70
2018-08-13T05:25:58.482Z,17.80
2018-08-13T05:28:26.416Z,17.90
2018-08-13T05:30:54.824Z,17.90
2018-08-13T05:33:22.322Z,18.00
2018-08-13T05:35:51.534Z,18.20
2018-08-13T05:38:19.654Z,18.20
2018-08-13T05:40:51.185Z,18.40
2018-08-13T05:43:19.087Z,18.40
2018-08-13T05:45:47.762Z,18.50
2018-08-13T05:48:15.530Z,18.60
2018-08-13T05:50:42.912Z,18.80
2018-08-13T05:53:10.330Z,18.90
2018-08-13T05:55:37.773Z,19.10
2018-08-13T05:58:05.287Z,19.20
2018-08-13T06:00:32.674Z,19.50
2018-08-13T06:03:00.177Z,19.50
2018-08-13T06:05:27.541Z,19.70
2018-08-13T06:07:54.937Z,19.80
2018-08-13T06:10:22.381Z,19.90
2018-08-13T06:12:49.810Z,20.10
2018-08-13T06:15:17.321Z,20.20
2018-08-13T06:17:44.737Z,20.30
2018-08-13T06:20:12.581Z,20.50
2018-08-13T06:22:41.236Z,20.60
2018-08-13T06:25:09.500Z,20.60
2018-08-13T06:27:36.904Z,20.80
2018-08-13T06:30:07.681Z,20.90
2018-08-13T06:32:35.077Z,20.90
2018-08-13T06:35:02.553Z,21.20
2018-08-13T06:37:30.431Z,21.40
2018-08-13T06:42:31.979Z,21.60
2018-08-13T06:44:59.455Z,21.70
2018-08-13T06:50:15.017Z,21.90
2018-08-13T06:52:42.694Z,22.00
2018-08-13T06:55:10.162Z,22.10
2018-08-13T06:57:37.618Z,22.10
2018-08-13T07:00:07.795Z,22.30
2018-08-13T07:02:36.304Z,22.40
2018-08-13T07:08:06.420Z,22.70
2018-08-13T07:10:34.292Z,22.90
2018-08-13T07:13:02.075Z,23.30
2018-08-13T07:15:29.715Z,23.50
2018-08-13T07:17:57.359Z,23.80
2018-08-13T07:20:24.761Z,23.90
2018-08-13T07:22:52.154Z,24.00
2018-08-13T07:25:20.116Z,24.00
2018-08-13T07:27:47.659Z,24.00
2018-08-13T07:30:15.146Z,24.40
2018-08-13T07:32:43.370Z,24.30
2018-08-13T07:35:10.847Z,24.50
2018-08-13T07:37:38.482Z,24.60
2018-08-13T07:40:07.882Z,24.60
2018-08-13T07:42:35.300Z,24.90
2018-08-13T07:45:02.802Z,24.90
2018-08-13T07:47:30.193Z,25.10
2018-08-13T07:49:57.706Z,25.20
2018-08-13T07:52:25.135Z,25.50
2018-08-13T07:54:52.786Z,25.60
2018-08-13T07:57:20.184Z,25.60
2018-08-13T07:59:47.533Z,25.80
2018-08-13T08:02:15.125Z,26.00
2018-08-13T08:04:42.632Z,26.00
2018-08-13T08:07:10.106Z,26.10
2018-08-13T08:09:37.630Z,26.40
2018-08-13T08:12:05.179Z,26.40
2018-08-13T08:14:32.699Z,26.60
2018-08-13T08:17:00.170Z,26.80
2018-08-13T08:19:27.487Z,26.70
2018-08-13T08:21:54.973Z,26.90
2018-08-13T08:24:22.457Z,27.00
2018-08-13T08:26:49.888Z,26.90
2018-08-13T08:29:17.406Z,27.20
2018-08-13T08:31:44.806Z,27.40
2018-08-13T08:34:12.242Z,27.50
2018-08-13T08:36:39.629Z,27.70
2018-08-13T08:39:09.509Z,27.70
2018-08-13T08:41:37.006Z,27.50
2018-08-13T08:44:04.497Z,27.10
2018-08-13T08:46:31.853Z,27.00
2018-08-13T08:48:59.332Z,26.80
2018-08-13T08:51:26.785Z,26.50
2018-08-13T08:53:54.147Z,26.50
2018-08-13T08:56:21.643Z,26.40
2018-08-13T08:58:48.962Z,26.20
2018-08-13T09:01:16.452Z,26.20
2018-08-13T09:03:44.005Z,26.20
2018-08-13T09:06:11.491Z,26.20
2018-08-13T09:08:38.953Z,26.60
2018-08-13T09:11:06.323Z,26.70
2018-08-13T09:13:33.847Z,26.80
2018-08-13T09:16:01.251Z,27.10
2018-08-13T09:18:40.215Z,27.40
2018-08-13T09:21:19.076Z,27.60
2018-08-13T09:23:58.170Z,28.00
2018-08-13T09:26:37.129Z,28.00
2018-08-13T09:29:16.181Z,28.00
2018-08-13T09:32:30.335Z,27.90
2018-08-13T09:35:00.798Z,27.90
2018-08-13T09:37:28.236Z,28.20
2018-08-13T09:39:55.889Z,28.00
2018-08-13T09:42:23.843Z,28.00
2018-08-13T09:44:51.625Z,28.00
2018-08-13T09:47:19.106Z,28.10
2018-08-13T09:49:46.504Z,28.20
2018-08-13T09:52:13.962Z,28.10
2018-08-13T09:54:41.412Z,28.20
2018-08-13T09:57:08.984Z,28.10
2018-08-13T09:59:36.306Z,28.30
2018-08-13T10:02:03.871Z,28.30
2018-08-13T10:04:31.354Z,28.30
2018-08-13T10:06:58.786Z,28.40
2018-08-13T10:09:26.275Z,28.60
2018-08-13T10:11:53.554Z,28.50
2018-08-13T10:14:21.114Z,28.30
2018-08-13T10:16:48.620Z,28.40
2018-08-13T10:19:16.111Z,28.30
2018-08-13T10:21:43.581Z,28.20
2018-08-13T10:24:10.954Z,28.60
2018-08-13T10:26:38.362Z,28.80
2018-08-13T10:29:06.022Z,28.70
2018-08-13T10:31:33.418Z,29.00
2018-08-13T10:34:00.874Z,29.00
2018-08-13T10:36:28.292Z,28.90
2018-08-13T10:38:55.725Z,29.10
2018-08-13T10:41:23.145Z,29.20
2018-08-13T10:43:50.662Z,29.10
2018-08-13T10:46:18.026Z,28.90
2018-08-13T10:48:45.458Z,28.90
2018-08-13T10:51:12.888Z,29.00
2018-08-13T10:53:40.392Z,28.90
2018-08-13T10:56:07.892Z,29.40
2018-08-13T10:58:35.388Z,29.40
2018-08-13T11:01:03.000Z,29.10
2018-08-13T11:03:30.894Z,29.00
2018-08-13T11:05:58.361Z,28.60
2018-08-13T11:08:25.821Z,28.40
2018-08-13T11:10:53.272Z,28.20
2018-08-13T11:13:20.812Z,27.90
2018-08-13T11:15:48.127Z,27.60
2018-08-13T11:18:15.650Z,27.50
2018-08-13T11:20:43.035Z,27.30
2018-08-13T11:23:10.494Z,27.30
2018-08-13T11:25:38.001Z,27.10
2018-08-13T11:28:05.479Z,26.90
2018-08-13T11:30:32.839Z,26.60
2018-08-13T11:33:00.323Z,26.40
2018-08-13T11:35:27.683Z,26.20
2018-08-13T11:37:55.034Z,26.20
2018-08-13T11:40:22.435Z,26.10
2018-08-13T11:42:49.774Z,25.90
2018-08-13T11:45:17.196Z,25.90
2018-08-13T11:47:44.551Z,25.90
2018-08-13T11:50:14.508Z,25.90
2018-08-13T11:52:43.176Z,25.90
2018-08-13T11:55:10.665Z,25.90
2018-08-13T11:57:38.114Z,25.80
2018-08-13T12:00:07.747Z,25.80
2018-08-13T12:02:35.514Z,25.70
2018-08-13T12:05:03.796Z,25.70
2018-08-13T12:07:31.261Z,25.70
2018-08-13T12:09:58.704Z,25.70
2018-08-13T12:12:26.157Z,25.80
2018-08-13T12:14:53.490Z,25.50
2018-08-13T12:17:20.830Z,25.50
2018-08-13T12:19:48.325Z,25.40
2018-08-13T12:22:15.793Z,25.40
2018-08-13T12:24:43.243Z,25.30
2018-08-13T12:27:10.682Z,25.30
2018-08-13T12:29:38.115Z,25.30
2018-08-13T12:32:05.624Z,25.40
2018-08-13T12:34:33.105Z,25.40
2018-08-13T12:37:06.218Z,25.10
2018-08-13T12:39:33.601Z,25.20
2018-08-13T12:42:01.166Z,25.20
2018-08-13T12:44:28.676Z,25.40
2018-08-13T12:46:56.144Z,25.40
2018-08-13T12:49:23.631Z,25.30
2018-08-13T12:51:51.149Z,25.10
2018-08-13T12:54:18.778Z,25.30
2018-08-13T12:56:46.291Z,25.30
2018-08-13T12:59:13.729Z,25.20
2018-08-13T13:01:41.204Z,25.00
2018-08-13T13:04:08.668Z,25.10
2018-08-13T13:06:36.236Z,24.80
2018-08-13T13:09:07.131Z,24.80
2018-08-13T13:11:34.554Z,24.70
2018-08-13T13:14:02.034Z,24.80
2018-08-13T13:16:29.458Z,24.80
2018-08-13T13:18:56.806Z,24.80
2018-08-13T13:21:24.245Z,24.60
2018-08-13T13:23:51.690Z,24.60
2018-08-13T13:26:19.248Z,24.30
2018-08-13T13:28:46.639Z,24.50
2018-08-13T13:31:14.077Z,24.40
2018-08-13T13:33:41.594Z,24.50
2018-08-13T13:36:09.020Z,24.50
2018-08-13T13:38:36.580Z,24.50
2018-08-13T13:41:04.064Z,24.40
2018-08-13T13:43:31.512Z,24.50
2018-08-13T13:45:59.093Z,24.70
2018-08-13T13:48:26.561Z,24.80
2018-08-13T13:50:53.937Z,24.90
2018-08-13T13:53:21.412Z,24.70
2018-08-13T13:55:48.821Z,24.60
2018-08-13T13:58:16.356Z,24.50
2018-08-13T14:00:43.785Z,24.50
2018-08-13T14:03:11.233Z,24.60
2018-08-13T14:05:38.623Z,24.60
2018-08-13T14:08:06.421Z,24.40
2018-08-13T14:10:33.949Z,24.40
2018-08-13T14:13:01.457Z,24.40
2018-08-13T14:15:28.863Z,24.40
2018-08-13T14:17:56.229Z,24.40
2018-08-13T14:20:24.018Z,24.40
2018-08-13T14:22:51.492Z,24.50
2018-08-13T14:25:19.006Z,24.40
2018-08-13T14:27:46.549Z,24.30
2018-08-13T14:30:21.016Z,24.30
2018-08-13T14:32:48.904Z,24.50
2018-08-13T14:35:17.457Z,24.60
2018-08-13T14:37:44.854Z,24.50
2018-08-13T14:40:12.856Z,24.40
2018-08-13T14:42:40.755Z,24.50
2018-08-13T14:45:10.125Z,24.50
2018-08-13T14:47:37.871Z,24.50
2018-08-13T14:50:06.702Z,24.60
2018-08-13T14:52:34.234Z,24.60
2018-08-13T14:55:01.815Z,24.40
2018-08-13T14:57:29.237Z,24.20
2018-08-13T14:59:56.734Z,24.10
2018-08-13T15:02:24.321Z,24.00
2018-08-13T15:04:52.222Z,24.10
2018-08-13T15:07:19.730Z,24.00
2018-08-13T15:09:47.220Z,24.00
2018-08-13T15:12:14.749Z,24.00
2018-08-13T15:14:42.200Z,24.00
2018-08-13T15:17:09.614Z,23.90
2018-08-13T15:19:37.118Z,23.70
2018-08-13T15:22:04.646Z,23.70
2018-08-13T15:24:32.238Z,23.60
2018-08-13T15:26:59.842Z,23.40
2018-08-13T15:29:27.209Z,23.50
2018-08-13T15:31:54.583Z,23.50
2018-08-13T15:34:22.038Z,23.40
2018-08-13T15:36:49.466Z,23.40
2018-08-13T15:39:16.858Z,23.50
2018-08-13T15:41:45.188Z,23.50
2018-08-13T15:44:12.592Z,23.50
2018-08-13T15:46:40.031Z,23.50
2018-08-13T15:49:07.540Z,23.30
2018-08-13T15:51:35.070Z,23.30
2018-08-13T15:54:02.550Z,23.40
2018-08-13T15:56:30.043Z,23.40
2018-08-13T15:58:57.602Z,23.50
2018-08-13T16:01:25.171Z,23.40
2018-08-13T16:03:52.630Z,23.40
2018-08-13T16:09:18.779Z,23.40
2018-08-13T16:11:46.421Z,23.40
2018-08-13T16:14:13.881Z,23.50
2018-08-13T16:16:41.262Z,23.50
2018-08-13T16:19:08.757Z,23.70
2018-08-13T16:21:36.229Z,23.70
2018-08-13T16:24:03.630Z,23.80
2018-08-13T16:26:31.111Z,23.90
2018-08-13T16:28:58.534Z,24.00
2018-08-13T16:31:26.032Z,24.00
2018-08-13T16:33:53.531Z,23.90
2018-08-13T16:36:20.931Z,24.00
2018-08-13T16:38:48.349Z,23.80
2018-08-13T16:41:15.941Z,23.70
2018-08-13T16:43:43.302Z,23.70
2018-08-13T16:46:10.722Z,23.70
2018-08-13T16:48:38.169Z,23.70
2018-08-13T16:51:05.631Z,23.70
2018-08-13T16:53:33.129Z,23.70
2018-08-13T16:56:00.661Z,23.70
2018-08-13T16:58:27.935Z,23.80
2018-08-13T17:00:55.345Z,23.70
2018-08-13T17:03:22.933Z,23.70
2018-08-13T17:05:50.501Z,23.60
2018-08-13T17:08:17.933Z,23.60
2018-08-13T17:10:45.344Z,23.60
2018-08-13T17:13:12.869Z,23.60
2018-08-13T17:15:40.369Z,23.60
2018-08-13T17:18:07.808Z,23.60
2018-08-13T17:20:37.566Z,23.50
2018-08-13T17:23:05.134Z,23.50
2018-08-13T17:25:32.767Z,23.50
2018-08-13T17:28:00.417Z,23.50
2018-08-13T17:30:27.903Z,23.40
2018-08-13T17:32:56.812Z,23.40
2018-08-13T17:35:26.165Z,23.40
2018-08-13T17:37:53.630Z,23.40
2018-08-13T17:40:22.475Z,23.30
2018-08-13T17:42:51.012Z,23.30
2018-08-13T17:45:19.298Z,23.30
2018-08-13T17:47:46.714Z,23.30
2018-08-13T17:50:23.230Z,23.30
2018-08-13T17:52:52.149Z,23.30
2018-08-13T17:55:19.922Z,23.30
2018-08-13T17:57:47.611Z,23.30
2018-08-13T18:00:17.034Z,23.20
2018-08-13T18:02:44.689Z,23.10
2018-08-13T18:05:14.866Z,23.00
2018-08-13T18:07:42.662Z,23.00
2018-08-13T18:10:13.848Z,23.10
2018-08-13T18:12:41.367Z,23.00
2018-08-13T18:15:11.557Z,23.00
2018-08-13T18:17:39.234Z,23.00
2018-08-13T18:20:08.662Z,23.00
2018-08-13T18:22:35.981Z,22.90
2018-08-13T18:25:03.874Z,22.90
2018-08-13T18:27:31.430Z,23.00
2018-08-13T18:29:58.990Z,22.90
2018-08-13T18:32:26.408Z,22.90
2018-08-13T18:34:54.199Z,22.90
2018-08-13T18:37:21.886Z,22.80
2018-08-13T18:39:49.761Z,22.80
2018-08-13T18:42:18.064Z,22.80
2018-08-13T18:44:45.719Z,22.80
2018-08-13T18:47:13.224Z,22.80
2018-08-13T18:49:40.711Z,22.80
2018-08-13T18:52:08.413Z,22.80
2018-08-13T18:54:35.851Z,22.80
2018-08-13T18:57:03.957Z,22.80
2018-08-13T18:59:31.383Z,22.70
2018-08-13T19:01:58.979Z,22.70
2018-08-13T19:04:26.493Z,22.60
2018-08-13T19:06:53.951Z,22.60
2018-08-13T19:09:21.400Z,22.60
2018-08-13T19:11:49.259Z,22.60
2018-08-13T19:14:16.696Z,22.60
2018-08-13T19:16:44.137Z,22.60
2018-08-13T19:19:11.670Z,22.60
2018-08-13T19:21:39.305Z,22.40
2018-08-13T19:24:06.817Z,22.30
2018-08-13T19:26:34.287Z,22.20
2018-08-13T19:29:01.807Z,22.20
2018-08-13T19:31:29.407Z,21.80
2018-08-13T19:33:56.842Z,21.20
2018-08-13T19:36:24.291Z,20.70
2018-08-13T19:38:51.851Z,20.40
2018-08-13T19:41:19.333Z,20.40
2018-08-13T19:43:46.835Z,20.40
2018-08-13T19:46:14.371Z,20.50
2018-08-13T19:48:41.905Z,20.50
2018-08-13T19:51:09.337Z,20.50
2018-08-13T19:53:38.368Z,20.40
2018-08-13T19:56:06.347Z,20.50
2018-08-13T19:58:33.797Z,20.40
2018-08-13T20:01:01.838Z,20.40
2018-08-13T20:03:29.711Z,20.50
2018-08-13T20:05:57.167Z,20.40
2018-08-13T20:08:24.557Z,20.30
2018-08-13T20:10:52.021Z,20.40
2018-08-13T20:13:19.519Z,20.30
2018-08-13T20:15:46.962Z,20.30
2018-08-13T20:18:14.481Z,20.30
2018-08-13T20:20:42.949Z,20.40
2018-08-13T20:23:10.429Z,20.40
2018-08-13T20:25:37.975Z,20.30
2018-08-13T20:28:05.682Z,20.30
2018-08-13T20:30:33.794Z,20.20
2018-08-13T20:33:01.368Z,20.20
2018-08-13T20:35:28.836Z,20.20
2018-08-13T20:37:56.373Z,20.20
2018-08-13T20:40:23.837Z,20.20
2018-08-13T20:42:51.300Z,20.20
2018-08-13T20:45:21.090Z,20.30
2018-08-13T20:47:48.746Z,20.30
2018-08-13T20:50:18.284Z,20.30
2018-08-13T20:52:46.477Z,20.20
2018-08-13T20:55:16.499Z,20.30
2018-08-13T20:57:44.761Z,20.40
2018-08-13T21:00:13.301Z,20.40
2018-08-13T21:02:41.302Z,20.30
2018-08-13T21:05:09.046Z,20.20
2018-08-13T21:07:36.504Z,20.20
2018-08-13T21:10:05.448Z,20.20
2018-08-13T21:12:32.894Z,20.20
2018-08-13T21:15:00.367Z,20.30
2018-08-13T21:17:28.558Z,20.20
2018-08-13T21:19:56.142Z,20.20
2018-08-13T21:22:23.626Z,20.10
2018-08-13T21:24:51.169Z,20.20
2018-08-13T21:27:18.642Z,20.20
2018-08-13T21:29:46.022Z,20.20
2018-08-13T21:32:13.501Z,20.20
2018-08-13T21:34:41.060Z,20.20
2018-08-13T21:37:08.703Z,20.20
2018-08-13T21:39:36.231Z,20.00
2018-08-13T21:42:03.645Z,19.90
2018-08-13T21:44:31.047Z,19.80
2018-08-13T21:46:58.609Z,19.70
2018-08-13T21:49:27.577Z,19.80
2018-08-13T21:52:03.175Z,19.90
2018-08-13T21:54:31.285Z,19.90
2018-08-13T21:56:58.969Z,19.80
2018-08-13T21:59:27.551Z,19.80
2018-08-13T22:01:56.546Z,19.80
2018-08-13T22:04:24.207Z,19.80
2018-08-13T22:06:52.847Z,19.70
2018-08-13T22:09:20.643Z,19.80
2018-08-13T22:11:48.447Z,19.80
2018-08-13T22:14:16.571Z,19.80
2018-08-13T22:16:44.515Z,19.70
2018-08-13T22:19:12.979Z,19.80
2018-08-13T22:21:42.074Z,19.70
2018-08-13T22:24:21.357Z,19.70
2018-08-13T22:26:50.165Z,19.70
2018-08-13T22:29:18.178Z,19.60
2018-08-13T22:31:46.004Z,19.60
2018-08-13T22:34:13.755Z,19.70
2018-08-13T22:36:41.757Z,19.50
2018-08-13T22:39:09.984Z,19.60
2018-08-13T22:41:39.603Z,19.50
2018-08-13T22:44:08.160Z,19.50
2018-08-13T22:46:36.086Z,19.50
2018-08-13T22:52:07.121Z,19.40
2018-08-13T22:54:34.522Z,19.40
2018-08-13T22:57:01.846Z,19.40
2018-08-13T22:59:29.254Z,19.30
2018-08-13T23:01:56.756Z,19.40
2018-08-13T23:04:24.173Z,19.30
2018-08-13T23:06:51.602Z,19.30
2018-08-13T23:09:19.023Z,19.30
2018-08-13T23:11:46.526Z,19.30
2018-08-13T23:14:14.042Z,19.30
2018-08-13T23:16:41.530Z,19.30
2018-08-13T23:19:08.930Z,19.30
2018-08-13T23:21:36.390Z,19.10
2018-08-13T23:24:04.438Z,19.10
2018-08-13T23:26:31.870Z,19.10
2018-08-13T23:28:59.309Z,19.10
2018-08-13T23:31:26.763Z,19.10
2018-08-13T23:33:54.261Z,19.10
2018-08-13T23:36:21.746Z,19.10
2018-08-13T23:38:49.170Z,19.20
2018-08-13T23:41:16.642Z,19.20
2018-08-13T23:43:44.049Z,19.30
2018-08-13T23:46:11.549Z,19.20
2018-08-13T23:48:39.121Z,19.20
2018-08-13T23:51:06.921Z,19.10
2018-08-13T23:53:34.369Z,19.10
2018-08-13T23:56:01.723Z,19.10
2018-08-13T23:58:29.105Z,19.20
